To NAV CANADA Home Page Login to a new session Search on AWWS site Feedback and Comments Disclaimer Vers la page française équivalente Tips FAQ What's new on the site To the Forecasts and Observations / NOTAM section To "File a Flight Plan" website Publications and other links Update of the User's profile FIC Telephone Numbers My Weather Data Folder Route Weather Data Regional Weather Data Local Weather Data To the Forecasts and Observations / NOTAM section
Request Generated 09/28/2016 at 18:44:55 UTC . Weather information available at that time is displayed.

METAR/TAF

SWIFT CURRENT/SK    (show WxCam)

METAR CYYN 281800Z AUTO 08013G19KT 9SM FEW080 14/01 A3032 RMK SLP280
DENSITY ALT 2700FT=
METAR CYYN 281700Z AUTO 07013G19KT 9SM FEW110 13/01 A3034 RMK SLP285=
METAR CYYN 281600Z AUTO 06010KT 9SM SCT095 BKN120 10/04 A3035 RMK
SLP290=

TAF CYYN 281738Z 2818/2906 07015G25KT P6SM BKN120
FM282200 07015G25KT P6SM SCT120
BECMG 2902/2904 08010KT
RMK FCST BASED ON AUTO OBS. NXT FCST BY 290000Z=
Your time UTC time
Weather data provided by Environment Canada and NAV CANADA